Time;durP1;ratioP1;P1;durP2;ratioP2;P2;SDS_P1;SDS_P2;PMS_P1;PMS_P2;Temp;Humidity;BMP_temperature;BMP_pressure;BME280_temperature;BME280_humidity;BME280_pressure;Samples;Min_cycle;Max_cycle;Signal;HPM_P1;HPM_P2
2023/10/04 00:01:15;;;;;;;10.07;4.30;;;11.30;99.90;;;;;;5054659;28;20547;-62
2023/10/04 00:03:41;;;;;;;10.38;3.97;;;11.30;99.90;;;;;;5056944;28;20071;-62
2023/10/04 00:06:08;;;;;;;;;;;11.40;99.90;;;;;;5061175;28;20128;-63
2023/10/04 00:08:33;;;;;;;8.87;3.90;;;11.40;99.90;;;;;;5059794;28;19920;-62
2023/10/04 00:11:01;;;;;;;;;;;11.30;99.90;;;;;;5061087;28;20037;-60
2023/10/04 00:13:27;;;;;;;11.98;5.57;;;11.30;99.90;;;;;;5059113;28;19916;-60
2023/10/04 00:15:52;;;;;;;;;;;11.30;99.90;;;;;;5060010;28;20500;-60
2023/10/04 00:18:18;;;;;;;12.32;4.88;;;11.30;99.90;;;;;;5050117;28;20628;-60
2023/10/04 00:20:43;;;;;;;15.30;5.10;;;11.30;99.90;;;;;;5046853;28;20095;-60
2023/10/04 00:23:09;;;;;;;;;;;11.30;99.90;;;;;;5046874;28;20032;-62
2023/10/04 00:25:35;;;;;;;21.33;5.78;;;11.20;99.90;;;;;;5046545;28;19951;-61
2023/10/04 00:28:02;;;;;;;13.98;5.72;;;11.20;99.90;;;;;;5045284;28;20041;-61
2023/10/04 00:30:29;;;;;;;14.60;5.15;;;11.20;99.90;;;;;;5044541;28;20040;-62
2023/10/04 00:33:04;;;;;;;10.65;5.07;;;11.20;99.90;;;;;;5026510;28;20041;-61
2023/10/04 00:35:30;;;;;;;11.13;5.93;;;11.30;99.90;;;;;;5035575;28;20040;-62
2023/10/04 00:38:00;;;;;;;11.45;5.47;;;11.20;99.90;;;;;;5029231;28;20037;-61
2023/10/04 00:40:31;;;;;;;12.98;5.80;;;11.20;99.90;;;;;;5032794;28;20053;-62
2023/10/04 00:43:01;;;;;;;11.57;5.72;;;11.20;99.90;;;;;;5033484;28;20549;-64
2023/10/04 00:45:28;;;;;;;9.93;4.75;;;11.20;99.90;;;;;;5040856;28;20052;-62
2023/10/04 00:47:58;;;;;;;12.95;5.22;;;11.30;99.90;;;;;;5031967;28;20583;-61
2023/10/04 00:50:26;;;;;;;11.38;4.60;;;11.30;99.90;;;;;;5040806;28;20118;-60
2023/10/04 00:53:13;;;;;;;13.90;4.80;;;11.30;99.90;;;;;;5033796;28;20068;-62
2023/10/04 00:55:42;;;;;;;15.93;5.35;;;11.30;99.90;;;;;;5035215;28;20048;-63
2023/10/04 00:58:09;;;;;;;13.20;5.32;;;11.30;99.90;;;;;;5033433;28;20065;-62
2023/10/04 01:00:39;;;;;;;13.63;4.90;;;11.30;99.90;;;;;;5036382;28;20045;-62
2023/10/04 01:03:13;;;;;;;12.13;4.70;;;11.30;99.90;;;;;;5043296;28;20106;-60
2023/10/04 01:05:45;;;;;;;16.58;4.95;;;11.20;99.90;;;;;;5043659;28;20088;-60
2023/10/04 01:08:13;;;;;;;15.13;5.78;;;11.20;99.90;;;;;;5044660;28;20045;-63
2023/10/04 01:10:38;;;;;;;10.95;5.55;;;11.10;99.90;;;;;;5045335;28;20040;-59
2023/10/04 01:13:09;;;;;;;;;;;11.20;99.90;;;;;;5041643;28;20033;-61
2023/10/04 01:15:36;;;;;;;13.57;5.43;;;11.10;99.90;;;;;;5046318;28;20463;-60
2023/10/04 01:18:07;;;;;;;11.65;4.68;;;11.20;99.90;;;;;;5041879;28;20582;-62
2023/10/04 01:20:33;;;;;;;11.02;5.38;;;11.20;99.90;;;;;;5040416;28;20531;-61
2023/10/04 01:23:05;;;;;;;16.02;5.25;;;11.10;99.90;;;;;;5043999;28;20049;-55
2023/10/04 01:25:35;;;;;;;13.98;5.03;;;11.20;99.90;;;;;;5046443;28;20087;-63
2023/10/04 01:28:06;;;;;;;18.15;5.40;;;11.20;99.90;;;;;;5044094;28;20074;-59
2023/10/04 01:30:33;;;;;;;8.57;4.82;;;11.10;99.90;;;;;;5037391;28;20462;-59
2023/10/04 01:33:07;;;;;;;13.13;5.00;;;11.20;99.90;;;;;;5044762;28;20068;-60
2023/10/04 01:35:33;;;;;;;16.85;5.15;;;11.20;99.90;;;;;;5040897;28;20047;-61
2023/10/04 01:37:59;;;;;;;;;;;11.10;99.90;;;;;;5044472;28;20041;-55
2023/10/04 01:40:31;;;;;;;9.32;5.10;;;11.10;99.90;;;;;;5045547;28;19916;-56
2023/10/04 01:42:57;;;;;;;14.43;4.97;;;11.10;99.90;;;;;;5043916;28;20500;-58
2023/10/04 01:45:23;;;;;;;;;;;11.20;99.90;;;;;;5045531;28;20052;-53
2023/10/04 01:47:51;;;;;;;11.80;4.28;;;11.20;99.90;;;;;;5043523;28;19944;-57
2023/10/04 01:50:18;;;;;;;15.80;6.03;;;11.20;99.90;;;;;;5044369;28;20075;-61
2023/10/04 01:52:47;;;;;;;14.82;5.88;;;11.20;99.90;;;;;;5043726;28;20091;-61
2023/10/04 01:55:16;;;;;;;13.07;5.78;;;11.10;99.90;;;;;;5045246;28;20044;-57
2023/10/04 01:57:43;;;;;;;14.38;5.82;;;11.10;99.90;;;;;;5043067;28;20041;-61
2023/10/04 02:00:10;;;;;;;18.83;6.53;;;11.10;99.90;;;;;;5044388;28;20155;-58
2023/10/04 02:02:42;;;;;;;17.77;5.82;;;11.10;99.90;;;;;;5023910;28;20037;-60
2023/10/04 02:05:26;;;;;;;10.40;4.80;;;11.10;99.90;;;;;;5055396;28;20056;-63
2023/10/04 02:07:53;;;;;;;14.18;5.97;;;11.20;99.90;;;;;;5020786;28;20038;-61
2023/10/04 02:10:19;;;;;;;10.85;5.00;;;11.10;99.90;;;;;;5027326;28;20519;-61
2023/10/04 02:12:45;;;;;;;;;;;11.10;99.90;;;;;;5023900;28;20037;-63
2023/10/04 02:15:17;;;;;;;17.63;6.25;;;11.00;99.90;;;;;;5024653;28;19987;-62
2023/10/04 02:17:44;;;;;;;13.80;5.32;;;11.10;99.90;;;;;;5023638;28;20033;-60
2023/10/04 02:20:23;;;;;;;13.60;5.95;;;11.00;99.90;;;;;;5023752;28;20118;-59
2023/10/04 02:22:49;;;;;;;26.35;5.88;;;11.00;99.90;;;;;;5022720;28;20185;-62
2023/10/04 02:25:15;;;;;;;11.80;5.85;;;11.00;99.90;;;;;;5024428;28;20516;-60
2023/10/04 02:27:42;;;;;;;;;;;11.10;99.90;;;;;;5023309;28;20064;-62
2023/10/04 02:30:13;;;;;;;15.70;6.45;;;11.00;99.90;;;;;;5024183;28;19928;-63
2023/10/04 02:32:43;;;;;;;12.88;5.45;;;11.00;99.90;;;;;;5022817;28;20657;-61
2023/10/04 02:35:11;;;;;;;15.80;5.30;;;11.00;99.90;;;;;;5016912;28;20551;-60
2023/10/04 02:37:38;;;;;;;14.45;4.90;;;11.00;99.90;;;;;;5023643;28;20771;-62
2023/10/04 02:40:14;;;;;;;12.23;4.60;;;11.00;99.90;;;;;;5022782;28;20064;-63
2023/10/04 02:42:41;;;;;;;13.55;5.10;;;11.10;99.90;;;;;;5023654;28;20119;-62
2023/10/04 02:45:12;;;;;;;16.05;5.90;;;11.00;99.90;;;;;;5019879;28;21023;-60
2023/10/04 02:47:38;;;;;;;16.48;5.93;;;11.00;99.90;;;;;;5021880;28;20052;-61
2023/10/04 02:50:07;;;;;;;10.77;5.28;;;10.90;99.90;;;;;;5020033;28;20492;-62
2023/10/04 02:52:33;;;;;;;16.98;6.22;;;10.90;99.90;;;;;;5017025;28;20641;-63
2023/10/04 02:54:58;;;;;;;;;;;10.90;99.90;;;;;;5025208;28;20041;-63
2023/10/04 02:57:24;;;;;;;12.93;5.07;;;10.90;99.90;;;;;;5022151;28;19932;-61
2023/10/04 02:59:50;;;;;;;14.52;5.25;;;10.90;99.90;;;;;;5004858;28;20072;-64
2023/10/04 03:02:17;;;;;;;;;;;10.90;99.90;;;;;;5032470;28;20045;-62
2023/10/04 03:04:43;;;;;;;;;;;10.90;99.90;;;;;;5044334;28;19966;-63
2023/10/04 03:07:09;;;;;;;17.02;5.70;;;10.90;99.90;;;;;;5041869;28;20426;-60
2023/10/04 03:09:37;;;;;;;9.85;4.50;;;10.90;99.90;;;;;;5043967;28;20051;-61
2023/10/04 03:12:03;;;;;;;12.18;5.05;;;10.90;99.90;;;;;;5041866;28;20106;-60
2023/10/04 03:14:30;;;;;;;15.90;6.00;;;10.90;99.90;;;;;;5043168;28;20048;-60
2023/10/04 03:16:58;;;;;;;14.00;6.43;;;10.90;99.90;;;;;;5043841;28;20085;-63
2023/10/04 03:19:25;;;;;;;15.30;5.22;;;10.90;99.90;;;;;;5042383;28;20136;-61
2023/10/04 03:21:51;;;;;;;13.02;5.35;;;10.90;99.90;;;;;;5040300;28;20056;-56
2023/10/04 03:24:18;;;;;;;;;;;10.90;99.90;;;;;;5041155;28;20130;-58
2023/10/04 03:26:44;;;;;;;9.90;5.22;;;11.00;99.90;;;;;;5043703;28;19921;-60
2023/10/04 03:29:11;;;;;;;;;;;11.00;99.90;;;;;;5040856;28;20044;-55
2023/10/04 03:31:39;;;;;;;12.35;6.20;;;10.90;99.90;;;;;;5042961;28;20377;-54
2023/10/04 03:34:07;;;;;;;15.95;6.13;;;10.90;99.90;;;;;;5040540;28;20029;-57
2023/10/04 03:36:34;;;;;;;17.45;7.15;;;10.90;99.90;;;;;;5044055;28;20045;-58
2023/10/04 03:39:00;;;;;;;14.95;6.85;;;10.80;99.90;;;;;;5042327;28;20041;-56
2023/10/04 03:41:26;;;;;;;;;;;10.90;99.90;;;;;;5043951;28;20417;-60
2023/10/04 03:43:53;;;;;;;10.13;6.15;;;10.90;99.90;;;;;;5043066;28;20029;-59
2023/10/04 03:46:20;;;;;;;15.10;7.70;;;10.90;99.90;;;;;;5042615;28;20076;-61
2023/10/04 03:48:49;;;;;;;;;;;10.90;99.90;;;;;;5042807;28;20068;-61
2023/10/04 03:51:20;;;;;;;14.95;7.20;;;10.90;99.90;;;;;;5043153;28;19913;-59
2023/10/04 03:53:47;;;;;;;15.35;7.82;;;10.90;99.90;;;;;;5045704;28;20550;-59
2023/10/04 03:56:17;;;;;;;18.02;7.55;;;10.90;99.90;;;;;;5046315;28;20041;-59
2023/10/04 03:58:43;;;;;;;15.35;7.63;;;10.90;99.90;;;;;;5046331;28;20064;-61
2023/10/04 04:01:10;;;;;;;15.38;8.32;;;10.90;99.90;;;;;;5044121;28;20033;-57
2023/10/04 04:03:36;;;;;;;15.55;7.75;;;10.80;99.90;;;;;;5046758;28;20044;-60
2023/10/04 04:06:02;;;;;;;21.40;8.80;;;10.80;99.90;;;;;;5045808;28;20095;-59
2023/10/04 04:08:27;;;;;;;;;;;10.80;99.90;;;;;;5045985;28;20036;-58
2023/10/04 04:10:53;;;;;;;17.58;7.72;;;10.70;99.90;;;;;;5046384;28;20458;-59
2023/10/04 04:13:19;;;;;;;;;;;10.80;99.90;;;;;;5046072;28;20044;-61
2023/10/04 04:15:46;;;;;;;14.10;8.65;;;10.70;99.90;;;;;;5046953;28;19912;-61
2023/10/04 04:18:16;;;;;;;13.00;7.28;;;10.80;99.90;;;;;;5045598;28;20136;-61
2023/10/04 04:20:41;;;;;;;17.17;8.75;;;10.80;99.90;;;;;;5045960;28;20037;-61
2023/10/04 04:23:10;;;;;;;;;;;10.80;99.90;;;;;;5046090;28;20052;-61
2023/10/04 04:25:38;;;;;;;13.05;7.72;;;10.80;99.90;;;;;;5040669;28;19943;-61
2023/10/04 04:28:04;;;;;;;18.83;8.43;;;10.80;99.90;;;;;;5044989;28;20065;-59
2023/10/04 04:30:35;;;;;;;;;;;;;;;;;;5045349;28;20090;-61
2023/10/04 04:33:04;;;;;;;18.08;7.85;;;;;;;;;;5045629;28;19919;-60
2023/10/04 04:37:57;;;;;;;;;;;;;;;;;;5045632;28;20377;-58
2023/10/04 04:40:29;;;;;;;20.35;8.50;;;;;;;;;;5045195;28;20455;-60
2023/10/04 04:43:01;;;;;;;17.17;8.55;;;;;;;;;;5045822;28;20041;-59
2023/10/04 04:45:27;;;;;;;14.57;8.20;;;;;;;;;;5045553;28;20136;-55
2023/10/04 04:47:55;;;;;;;;;;;;;;;;;;5045124;28;20120;-59
2023/10/04 04:50:23;;;;;;;17.77;9.02;;;;;;;;;;5049162;28;20334;-60
2023/10/04 04:52:49;;;;;;;16.40;9.23;;;;;;;;;;5041167;28;20400;-61
2023/10/04 04:55:15;;;;;;;;;;;;;;;;;;5045480;28;20485;-61
2023/10/04 04:57:41;;;;;;;15.65;8.35;;;;;;;;;;5045352;28;19970;-62
2023/10/04 05:00:30;;;;;;;15.68;8.20;;;;;;;;;;5045972;28;20500;-61
2023/10/04 05:02:53;;;;;;;24.27;9.07;;;;;;;;;;5042979;28;20037;-62
2023/10/04 05:05:20;;;;;;;15.43;8.23;;;;;;;;;;5045021;28;20519;-61
2023/10/04 05:07:47;;;;;;;18.23;9.07;;;;;;;;;;5044480;28;20837;-62
2023/10/04 05:10:14;;;;;;;17.33;8.85;;;;;;;;;;5046669;28;20041;-62
2023/10/04 05:12:41;;;;;;;20.33;9.95;;;;;;;;;;5044125;28;20040;-61
2023/10/04 05:15:22;;;;;;;19.17;9.45;;;;;;;;;;5041284;28;20037;-61
2023/10/04 05:17:50;;;;;;;14.90;9.02;;;;;;;;;;5043440;28;20482;-61
2023/10/04 05:20:21;;;;;;;21.77;11.27;;;;;;;;;;5045526;28;20033;-60
2023/10/04 05:22:49;;;;;;;14.98;9.32;;;;;;;;;;5045389;28;20037;-58
2023/10/04 05:25:16;;;;;;;18.88;9.32;;;;;;;;;;5045173;28;20041;-61
2023/10/04 05:27:43;;;;;;;18.88;9.45;;;;;;;;;;5044196;28;20041;-60
2023/10/04 05:30:16;;;;;;;17.13;10.05;;;;;;;;;;5045489;28;20041;-59
2023/10/04 05:32:43;;;;;;;20.85;10.57;;;;;;;;;;5022106;28;20528;-56
2023/10/04 05:35:12;;;;;;;18.65;10.02;;;;;;;;;;5025441;28;20045;-60
2023/10/04 05:37:42;;;;;;;18.40;10.55;;;;;;;;;;5024368;28;20049;-61
2023/10/04 05:40:16;;;;;;;19.17;9.95;;;;;;;;;;5025956;28;20037;-62
2023/10/04 05:42:42;;;;;;;22.85;11.70;;;;;;;;;;5022421;28;20116;-61
2023/10/04 05:45:10;;;;;;;20.92;10.55;;;;;;;;;;5025099;28;20041;-58
2023/10/04 05:47:37;;;;;;;22.65;10.05;;;;;;;;;;5023663;28;20076;-62
2023/10/04 05:50:07;;;;;;;13.75;8.75;;;;;;;;;;5023885;28;20088;-60
2023/10/04 05:52:33;;;;;;;14.38;9.32;;;;;;;;;;5023710;28;20038;-59
2023/10/04 05:55:00;;;;;;;19.45;9.73;;;;;;;;;;5024774;28;20044;-59
2023/10/04 05:57:28;;;;;;;18.67;10.57;;;;;;;;;;5023811;28;20045;-60
2023/10/04 05:59:54;;;;;;;21.27;9.57;;;;;;;;;;5025268;28;20033;-61
2023/10/04 06:02:22;;;;;;;;;;;;;;;;;;5028717;28;20821;-61
2023/10/04 06:04:48;;;;;;;18.33;9.68;;;;;;;;;;5029056;28;19920;-62
2023/10/04 06:07:14;;;;;;;;;;;;;;;;;;5027854;28;20524;-61
2023/10/04 06:09:42;;;;;;;18.42;10.75;;;;;;;;;;5028483;28;19916;-61
2023/10/04 06:12:08;;;;;;;17.75;9.25;;;;;;;;;;5030673;28;20123;-61
2023/10/04 06:14:36;;;;;;;19.88;9.90;;;;;;;;;;5036804;28;20052;-58
2023/10/04 06:17:04;;;;;;;15.50;9.25;;;;;;;;;;5029209;28;20041;-61
2023/10/04 06:19:30;;;;;;;25.90;10.00;;;;;;;;;;5030066;28;20045;-62
2023/10/04 06:21:57;;;;;;;17.20;9.20;;;;;;;;;;5033501;28;20076;-65
2023/10/04 06:24:23;;;;;;;18.23;9.20;;;;;;;;;;5033001;28;20415;-63
2023/10/04 06:26:49;;;;;;;16.83;9.32;;;;;;;;;;5026834;28;20048;-61
2023/10/04 06:29:15;;;;;;;;;;;;;;;;;;5031570;28;20125;-65
2023/10/04 06:31:41;;;;;;;15.50;7.82;;;;;;;;;;5022809;28;19959;-63
2023/10/04 06:34:07;;;;;;;16.02;8.65;;;;;;;;;;5018311;28;20033;-61
2023/10/04 06:36:33;;;;;;;22.75;10.18;;;;;;;;;;5022153;28;20591;-62
2023/10/04 06:38:59;;;;;;;;;;;;;;;;;;5023331;28;20468;-62
2023/10/04 06:41:26;;;;;;;20.50;8.15;;;;;;;;;;5022705;28;19921;-62
2023/10/04 06:43:53;;;;;;;18.27;7.75;;;;;;;;;;5022458;28;20516;-64
2023/10/04 06:46:19;;;;;;;17.90;7.40;;;;;;;;;;5023385;28;20033;-63
2023/10/04 06:48:45;;;;;;;19.23;8.05;;;;;;;;;;5019793;28;20045;-59
2023/10/04 06:51:11;;;;;;;;;;;;;;;;;;5023523;28;20670;-63
2023/10/04 06:53:43;;;;;;;19.60;8.48;;;;;;;;;;5021885;28;19917;-63
2023/10/04 06:56:09;;;;;;;17.75;7.82;;;;;;;;;;5017972;28;20048;-63
2023/10/04 06:58:35;;;;;;;20.33;8.57;;;;;;;;;;5021797;28;20512;-63
2023/10/04 07:01:01;;;;;;;19.40;8.27;;;;;;;;;;5028285;28;20095;-61
2023/10/04 07:03:29;;;;;;;;;;;;;;;;;;5028437;28;20083;-62
2023/10/04 07:05:55;;;;;;;22.38;8.35;;;;;;;;;;5030541;28;19928;-61
2023/10/04 07:08:21;;;;;;;;;;;;;;;;;;5034256;28;20032;-63
2023/10/04 07:10:47;;;;;;;15.15;7.30;;;;;;;;;;5030673;28;20416;-62
2023/10/04 07:13:13;;;;;;;20.00;8.85;;;;;;;;;;5033077;28;20141;-64
2023/10/04 07:15:41;;;;;;;23.25;9.00;;;;;;;;;;5037751;28;20501;-64
2023/10/04 07:18:09;;;;;;;21.73;9.00;;;;;;;;;;5032537;28;20056;-64
2023/10/04 07:20:35;;;;;;;19.10;8.43;;;;;;;;;;5027552;28;20673;-62
2023/10/04 07:23:07;;;;;;;21.52;8.93;;;;;;;;;;5023106;28;20044;-62
2023/10/04 07:25:34;;;;;;;20.45;9.57;;;;;;;;;;5036308;28;20041;-63
2023/10/04 07:28:02;;;;;;;21.75;10.02;;;;;;;;;;5029228;28;20055;-62
2023/10/04 07:30:28;;;;;;;22.83;8.63;;;;;;;;;;5032860;28;20033;-63
2023/10/04 07:32:54;;;;;;;20.80;8.93;;;;;;;;;;5030871;28;20763;-63
2023/10/04 07:35:25;;;;;;;17.10;8.20;;;;;;;;;;5031183;28;20120;-62
2023/10/04 07:37:51;;;;;;;22.92;9.88;;;;;;;;;;5028486;28;20103;-62
2023/10/04 07:40:17;;;;;;;18.38;7.95;;;;;;;;;;5029001;28;20033;-62
2023/10/04 07:42:47;;;;;;;18.02;8.20;;;;;;;;;;5026476;28;20453;-61
2023/10/04 07:45:16;;;;;;;20.95;9.00;;;;;;;;;;5028655;28;20034;-60
2023/10/04 07:47:43;;;;;;;19.67;9.32;;;;;;;;;;5029848;28;20065;-60
2023/10/04 07:50:10;;;;;;;14.15;8.07;;;;;;;;;;5026941;28;20038;-61
2023/10/04 07:52:40;;;;;;;22.33;8.73;;;;;;;;;;5024745;28;20175;-60
2023/10/04 07:55:12;;;;;;;21.35;8.15;;;;;;;;;;5027965;28;20037;-62
2023/10/04 07:57:41;;;;;;;18.50;8.10;;;;;;;;;;5030103;28;20049;-62
2023/10/04 08:00:13;;;;;;;20.73;8.85;;;;;;;;;;5026403;28;20054;-61
2023/10/04 08:02:46;;;;;;;20.45;9.68;;;;;;;;;;5028461;28;20038;-63
2023/10/04 08:05:12;;;;;;;20.23;8.13;;;;;;;;;;5027739;28;20409;-58
2023/10/04 08:07:38;;;;;;;15.45;7.60;;;;;;;;;;5028971;28;20124;-61
2023/10/04 08:10:05;;;;;;;;;;;;;;;;;;5026420;28;20120;-61
2023/10/04 08:12:31;;;;;;;18.65;8.20;;;;;;;;;;5028793;28;19999;-61
2023/10/04 08:15:00;;;;;;;18.85;8.43;;;;;;;;;;5023891;28;20042;-62
2023/10/04 08:17:27;;;;;;;21.17;9.10;;;;;;;;;;5023201;28;20045;-64
2023/10/04 08:19:53;;;;;;;26.63;9.05;;;;;;;;;;5022739;28;20374;-62
2023/10/04 08:22:19;;;;;;;;;;;;;;;;;;5027505;28;20095;-62
2023/10/04 08:24:46;;;;;;;21.70;8.30;;;;;;;;;;5024886;28;19925;-64
2023/10/04 08:27:13;;;;;;;19.13;8.82;;;;;;;;;;5026900;28;20489;-61
2023/10/04 08:29:39;;;;;;;24.20;8.60;;;;;;;;;;5022695;28;20033;-62
2023/10/04 08:32:05;;;;;;;20.23;7.65;;;;;;;;;;5043529;28;20116;-61
2023/10/04 08:34:31;;;;;;;22.60;8.20;;;;;;;;;;5027812;28;20045;-62
2023/10/04 08:36:57;;;;;;;;;;;;;;;;;;5025086;28;20056;-62
2023/10/04 08:39:23;;;;;;;20.17;7.38;;;;;;;;;;5026360;28;19917;-64
2023/10/04 08:41:49;;;;;;;;;;;;;;;;;;5026391;28;20044;-62
2023/10/04 08:44:16;;;;;;;25.80;9.00;;;;;;;;;;5027750;28;19928;-62
2023/10/04 08:46:47;;;;;;;18.00;7.32;;;;;;;;;;5024628;28;20037;-61
2023/10/04 08:49:15;;;;;;;21.48;7.75;;;;;;;;;;5026347;28;20045;-61
2023/10/04 08:51:44;;;;;;;16.48;7.90;;;;;;;;;;5026293;28;20033;-60
2023/10/04 08:54:14;;;;;;;18.15;7.75;;;;;;;;;;5027003;28;20034;-62
2023/10/04 08:56:50;;;;;;;17.80;6.85;;;;;;;;;;5028992;28;20044;-61
2023/10/04 08:59:17;;;;;;;;;;;;;;;;;;5024059;28;20033;-60
2023/10/04 09:01:46;;;;;;;16.33;7.05;;;;;;;;;;5037010;28;19925;-61
2023/10/04 09:04:13;;;;;;;20.05;8.05;;;;;;;;;;5048244;28;20033;-62
2023/10/04 09:06:42;;;;;;;16.75;6.78;;;;;;;;;;5049157;28;20045;-63
2023/10/04 09:09:11;;;;;;;17.15;7.18;;;;;;;;;;5049231;28;20033;-62
2023/10/04 09:11:38;;;;;;;14.65;7.15;;;;;;;;;;5050408;28;20049;-62
2023/10/04 09:14:05;;;;;;;15.57;6.22;;;;;;;;;;5049823;28;20047;-62
2023/10/04 09:16:32;;;;;;;12.13;5.90;;;;;;;;;;5049812;28;20135;-62
2023/10/04 09:19:08;;;;;;;16.80;6.38;;;;;;;;;;5047804;28;20043;-63
2023/10/04 09:21:35;;;;;;;17.85;6.55;;;;;;;;;;5049292;28;20045;-62
2023/10/04 09:24:09;;;;;;;14.77;6.18;;;;;;;;;;5047351;28;20044;-62
2023/10/04 09:26:52;;;;;;;15.18;6.28;;;;;;;;;;5048748;28;20060;-64
2023/10/04 09:29:31;;;;;;;12.63;6.22;;;;;;;;;;5048423;28;20485;-63
2023/10/04 09:31:57;;;;;;;12.48;5.93;;;;;;;;;;5033764;28;20559;-62
2023/10/04 09:34:24;;;;;;;16.13;6.20;;;;;;;;;;5027670;28;20100;-63
2023/10/04 09:36:52;;;;;;;15.57;6.05;;;;;;;;;;5028820;28;20045;-60
2023/10/04 09:39:23;;;;;;;12.70;5.38;;;;;;;;;;5027877;28;20099;-61
2023/10/04 09:41:50;;;;;;;15.80;6.63;;;;;;;;;;5028696;28;20100;-62
2023/10/04 09:44:26;;;;;;;14.23;5.70;;;;;;;;;;5028632;28;20037;-62
2023/10/04 09:47:02;;;;;;;13.23;5.60;;;;;;;;;;5027137;28;20049;-61
2023/10/04 09:49:29;;;;;;;11.68;5.07;;;;;;;;;;5028322;28;20193;-62
2023/10/04 09:51:55;;;;;;;13.10;5.82;;;;;;;;;;5028517;28;20112;-62
2023/10/04 09:54:22;;;;;;;16.75;5.57;;;;;;;;;;5028191;28;20042;-62
2023/10/04 09:56:51;;;;;;;14.23;6.18;;;;;;;;;;5028333;28;20120;-62
2023/10/04 09:59:21;;;;;;;16.92;6.22;;;;;;;;;;5030786;28;20033;-58
2023/10/04 10:01:54;;;;;;;9.43;5.20;;;;;;;;;;5027225;28;20036;-62
2023/10/04 10:04:23;;;;;;;15.00;6.90;;;;;;;;;;5027614;28;20500;-62
2023/10/04 10:06:56;;;;;;;12.82;5.35;;;;;;;;;;5028285;28;20052;-62
2023/10/04 10:09:25;;;;;;;22.73;6.00;;;;;;;;;;5027636;28;20041;-65
2023/10/04 10:11:52;;;;;;;13.10;6.13;;;;;;;;;;5029437;28;20729;-62
2023/10/04 10:14:21;;;;;;;13.65;5.35;;;;;;;;;;5027801;28;20525;-64
2023/10/04 10:16:52;;;;;;;13.65;5.45;;;;;;;;;;5027777;28;20793;-63
2023/10/04 10:19:18;;;;;;;16.92;6.10;;;;;;;;;;5024992;28;20037;-62
2023/10/04 10:22:02;;;;;;;16.00;5.82;;;;;;;;;;5027766;28;20049;-62
2023/10/04 10:24:29;;;;;;;11.88;5.50;;;;;;;;;;5026569;28;20049;-62
2023/10/04 10:27:04;;;;;;;10.95;5.28;;;;;;;;;;5023696;28;20056;-62
2023/10/04 10:29:31;;;;;;;11.48;4.13;;;;;;;;;;5026163;28;20083;-63
2023/10/04 10:31:57;;;;;;;16.50;5.10;;;;;;;;;;5026315;28;20106;-63
2023/10/04 10:34:23;;;;;;;12.70;5.35;;;;;;;;;;5026596;28;20037;-62
2023/10/04 10:36:49;;;;;;;;;;;;;;;;;;5028050;28;20091;-63
2023/10/04 10:39:19;;;;;;;11.05;4.18;;;;;;;;;;5025742;28;20400;-63
2023/10/04 10:41:49;;;;;;;14.20;5.30;;;;;;;;;;5024871;28;20095;-62
2023/10/04 10:44:19;;;;;;;18.35;5.28;;;;;;;;;;5025063;28;20044;-59
2023/10/04 10:46:55;;;;;;;13.68;4.88;;;;;;;;;;5023400;28;20109;-63
2023/10/04 10:49:39;;;;;;;15.45;5.22;;;;;;;;;;5025614;28;20109;-62
2023/10/04 10:52:21;;;;;;;9.73;4.30;;;;;;;;;;5026699;28;20047;-63
2023/10/04 10:54:47;;;;;;;11.57;5.03;;;;;;;;;;5024934;28;20041;-62
2023/10/04 10:57:13;;;;;;;13.93;4.85;;;;;;;;;;5025567;28;21566;-62
2023/10/04 10:59:40;;;;;;;12.02;4.50;;;;;;;;;;5027891;28;20061;-63
2023/10/04 11:02:06;;;;;;;13.77;4.78;;;;;;;;;;5052864;28;20048;-62
2023/10/04 11:04:32;;;;;;;;;;;;;;;;;;5047390;28;20570;-62
2023/10/04 11:06:59;;;;;;;10.60;4.53;;;;;;;;;;5047417;28;19927;-63
2023/10/04 11:09:26;;;;;;;12.80;4.53;;;;;;;;;;5045530;28;20048;-62
2023/10/04 11:11:52;;;;;;;13.15;4.32;;;;;;;;;;5045099;28;20057;-62
2023/10/04 11:14:19;;;;;;;12.45;4.70;;;;;;;;;;5046565;28;20032;-62
2023/10/04 11:16:47;;;;;;;8.60;4.07;;;;;;;;;;5046407;28;20048;-62
2023/10/04 11:19:13;;;;;;;10.10;4.00;;;;;;;;;;5045875;28;20044;-65
2023/10/04 11:21:45;;;;;;;8.60;4.07;;;;;;;;;;5046450;28;20030;-63
2023/10/04 11:24:12;;;;;;;12.95;4.38;;;;;;;;;;5043262;28;20049;-64
2023/10/04 11:26:43;;;;;;;11.88;3.97;;;;;;;;;;5048102;28;20068;-62
2023/10/04 11:29:10;;;;;;;9.32;4.47;;;;;;;;;;5044698;28;20056;-64
2023/10/04 11:31:36;;;;;;;13.73;4.22;;;;;;;;;;5046039;28;20074;-63
2023/10/04 11:34:04;;;;;;;9.40;3.78;;;;;;;;;;5044135;28;20131;-64
2023/10/04 11:36:34;;;;;;;11.93;4.55;;;;;;;;;;5045288;28;20480;-63
2023/10/04 11:39:00;;;;;;;11.38;4.43;;;;;;;;;;5044804;28;20025;-62
2023/10/04 11:41:29;;;;;;;;;;;;;;;;;;5048298;28;20043;-62
2023/10/04 11:44:03;;;;;;;11.15;4.40;;;;;;;;;;5047465;28;19957;-61
2023/10/04 11:46:29;;;;;;;10.90;4.50;;;;;;;;;;5045848;28;20087;-62
2023/10/04 11:49:14;;;;;;;13.02;5.05;;;;;;;;;;5045091;28;20041;-61
2023/10/04 11:51:40;;;;;;;9.63;4.30;;;;;;;;;;5047380;28;20039;-62
2023/10/04 11:54:06;;;;;;;;;;;;;;;;;;5045556;28;20079;-63
2023/10/04 11:56:39;;;;;;;16.23;4.72;;;;;;;;;;5045988;28;19917;-63
2023/10/04 11:59:06;;;;;;;11.65;4.53;;;;;;;;;;5045777;28;20049;-64
2023/10/04 12:01:32;;;;;;;13.38;4.28;;;;;;;;;;5043587;28;20048;-63
2023/10/04 12:03:58;;;;;;;10.38;4.22;;;;;;;;;;5044497;28;20048;-63
2023/10/04 12:06:24;;;;;;;;;;;;;;;;;;5044346;28;20099;-64
2023/10/04 12:08:50;;;;;;;12.63;4.60;;;;;;;;;;5043939;28;19920;-63
2023/10/04 12:11:25;;;;;;;9.88;3.67;;;;;;;;;;5045203;28;20061;-61
2023/10/04 12:13:51;;;;;;;12.00;3.88;;;;;;;;;;5038184;28;20041;-63
2023/10/04 12:16:17;;;;;;;10.23;4.07;;;;;;;;;;5043636;28;20095;-63
2023/10/04 12:18:43;;;;;;;11.60;3.80;;;;;;;;;;5044333;28;20072;-64
2023/10/04 12:21:10;;;;;;;11.48;4.10;;;;;;;;;;5046391;28;20045;-63
2023/10/04 12:23:36;;;;;;;13.68;4.55;;;;;;;;;;5043801;28;20071;-64
2023/10/04 12:26:04;;;;;;;10.20;4.32;;;;;;;;;;5044041;28;20508;-64
2023/10/04 12:28:30;;;;;;;9.00;3.85;;;;;;;;;;5048040;28;20040;-64
2023/10/04 12:31:02;;;;;;;12.25;4.28;;;;;;;;;;5044754;28;20033;-63
2023/10/04 12:33:29;;;;;;;12.27;4.05;;;;;;;;;;5046656;28;20120;-64
2023/10/04 12:35:56;;;;;;;11.60;3.83;;;;;;;;;;5050607;28;20067;-64
2023/10/04 12:38:25;;;;;;;12.60;3.95;;;;;;;;;;5048944;28;20124;-65
2023/10/04 12:40:51;;;;;;;10.23;3.47;;;;;;;;;;5043568;28;20041;-63
2023/10/04 12:43:17;;;;;;;10.35;3.53;;;;;;;;;;5045573;28;20040;-63
2023/10/04 12:45:46;;;;;;;;;;;;;;;;;;5049682;28;20082;-64
2023/10/04 12:48:19;;;;;;;15.90;4.55;;;;;;;;;;5048634;28;19978;-64
2023/10/04 12:50:45;;;;;;;8.77;3.95;;;;;;;;;;5049779;28;20533;-62
2023/10/04 12:53:14;;;;;;;13.00;4.00;;;;;;;;;;5048660;28;20029;-62
2023/10/04 12:55:47;;;;;;;11.38;4.38;;;;;;;;;;5049777;28;20404;-64
2023/10/04 12:58:13;;;;;;;10.82;4.22;;;;;;;;;;5048101;28;20040;-62
2023/10/04 13:00:41;;;;;;;10.25;4.47;;;;;;;;;;5045431;28;20080;-62
2023/10/04 13:03:08;;;;;;;12.25;4.15;;;;;;;;;;5029051;28;20129;-63
2023/10/04 13:05:38;;;;;;;9.90;4.00;;;;;;;;;;5029303;28;20049;-63
2023/10/04 13:08:20;;;;;;;12.05;3.75;;;;;;;;;;5028811;28;20107;-63
2023/10/04 13:10:47;;;;;;;10.98;3.33;;;;;;;;;;5028371;28;20527;-62
2023/10/04 13:13:13;;;;;;;13.55;4.20;;;;;;;;;;5028467;28;20087;-63
2023/10/04 13:15:40;;;;;;;11.90;3.95;;;;;;;;;;5029681;28;20387;-63
2023/10/04 13:18:11;;;;;;;12.55;4.50;;;;;;;;;;5028395;28;20486;-63
2023/10/04 13:20:37;;;;;;;10.60;4.32;;;;;;;;;;5028892;28;20112;-63
2023/10/04 13:23:05;;;;;;;11.45;3.90;;;;;;;;;;5029045;28;20041;-63
2023/10/04 13:25:33;;;;;;;17.70;4.55;;;;;;;;;;5027170;28;20489;-62
2023/10/04 13:28:00;;;;;;;9.93;3.63;;;;;;;;;;5032031;28;20401;-62
2023/10/04 13:30:27;;;;;;;9.70;3.40;;;;;;;;;;5027023;28;20048;-62
2023/10/04 13:32:53;;;;;;;13.15;4.40;;;;;;;;;;5028501;28;20556;-63
2023/10/04 13:35:20;;;;;;;11.93;3.67;;;;;;;;;;5032177;28;20096;-62
2023/10/04 13:37:52;;;;;;;10.32;3.47;;;;;;;;;;5027850;28;20042;-62
2023/10/04 13:40:19;;;;;;;15.50;4.03;;;;;;;;;;5028169;28;20144;-61
2023/10/04 13:42:51;;;;;;;15.73;3.85;;;;;;;;;;5028597;28;20039;-62
2023/10/04 13:45:18;;;;;;;16.90;3.90;;;;;;;;;;5026747;28;20033;-62
2023/10/04 13:47:45;;;;;;;13.15;4.30;;;;;;;;;;5025349;28;20458;-62
2023/10/04 13:50:11;;;;;;;10.52;4.53;;;;;;;;;;5028590;28;20033;-62
2023/10/04 13:52:39;;;;;;;12.40;4.38;;;;;;;;;;5027635;28;20045;-63
2023/10/04 13:55:06;;;;;;;11.15;3.78;;;;;;;;;;5028883;28;20076;-63
2023/10/04 13:57:32;;;;;;;11.63;3.53;;;;;;;;;;5028917;28;20048;-63
2023/10/04 13:59:59;;;;;;;14.57;4.47;;;;;;;;;;5029972;28;20554;-62
2023/10/04 14:02:25;;;;;;;14.15;3.97;;;;;;;;;;5029216;28;20049;-63
2023/10/04 14:04:51;;;;;;;12.35;3.17;;;;;;;;;;5028463;28;20041;-62
2023/10/04 14:07:17;;;;;;;9.75;3.80;;;;;;;;;;5023788;28;20132;-59
2023/10/04 14:09:43;;;;;;;;;;;;;;;;;;5028875;28;20042;-62
2023/10/04 14:12:12;;;;;;;9.05;3.60;;;;;;;;;;5026115;28;19928;-64